sensor_id;sensor_type;location;lat;lon;timestamp;P1;durP1;ratioP1;P2;durP2;ratioP2
51438;SDS011;38816;51.142;-0.974;2023-03-12T00:00:40;58.58;;;11.90;;
51438;SDS011;38816;51.142;-0.974;2023-03-12T00:03:06;42.60;;;13.18;;
51438;SDS011;38816;51.142;-0.974;2023-03-12T00:05:31;38.55;;;11.38;;
51438;SDS011;38816;51.142;-0.974;2023-03-12T00:07:57;46.50;;;10.82;;
51438;SDS011;38816;51.142;-0.974;2023-03-12T00:10:26;44.78;;;10.45;;
51438;SDS011;38816;51.142;-0.974;2023-03-12T00:12:51;49.88;;;11.25;;
51438;SDS011;38816;51.142;-0.974;2023-03-12T00:15:17;48.53;;;9.77;;
51438;SDS011;38816;51.142;-0.974;2023-03-12T00:17:42;61.97;;;10.68;;
51438;SDS011;38816;51.142;-0.974;2023-03-12T00:20:08;46.55;;;10.73;;
51438;SDS011;38816;51.142;-0.974;2023-03-12T00:22:34;50.40;;;10.63;;
51438;SDS011;38816;51.142;-0.974;2023-03-12T00:24:59;55.25;;;11.20;;
51438;SDS011;38816;51.142;-0.974;2023-03-12T00:27:25;50.65;;;10.10;;
51438;SDS011;38816;51.142;-0.974;2023-03-12T00:29:51;51.40;;;9.85;;
51438;SDS011;38816;51.142;-0.974;2023-03-12T00:32:16;50.17;;;9.32;;
51438;SDS011;38816;51.142;-0.974;2023-03-12T00:34:42;40.47;;;8.65;;
51438;SDS011;38816;51.142;-0.974;2023-03-12T00:37:07;57.63;;;9.18;;
51438;SDS011;38816;51.142;-0.974;2023-03-12T00:39:33;47.83;;;8.93;;
51438;SDS011;38816;51.142;-0.974;2023-03-12T00:41:59;65.22;;;9.52;;
51438;SDS011;38816;51.142;-0.974;2023-03-12T00:44:25;51.20;;;9.90;;
51438;SDS011;38816;51.142;-0.974;2023-03-12T00:46:51;52.40;;;9.90;;
51438;SDS011;38816;51.142;-0.974;2023-03-12T00:49:16;56.55;;;10.20;;
51438;SDS011;38816;51.142;-0.974;2023-03-12T00:51:42;44.42;;;8.98;;
51438;SDS011;38816;51.142;-0.974;2023-03-12T00:54:07;61.55;;;8.95;;
51438;SDS011;38816;51.142;-0.974;2023-03-12T00:56:33;48.90;;;8.55;;
51438;SDS011;38816;51.142;-0.974;2023-03-12T00:58:59;48.78;;;8.73;;
51438;SDS011;38816;51.142;-0.974;2023-03-12T01:01:24;48.45;;;8.30;;
51438;SDS011;38816;51.142;-0.974;2023-03-12T01:03:51;49.97;;;8.18;;
51438;SDS011;38816;51.142;-0.974;2023-03-12T01:06:17;37.58;;;6.65;;
51438;SDS011;38816;51.142;-0.974;2023-03-12T01:08:43;50.13;;;8.40;;
51438;SDS011;38816;51.142;-0.974;2023-03-12T01:11:12;48.03;;;7.95;;
51438;SDS011;38816;51.142;-0.974;2023-03-12T01:13:38;44.20;;;7.30;;
51438;SDS011;38816;51.142;-0.974;2023-03-12T01:16:03;49.42;;;7.10;;
51438;SDS011;38816;51.142;-0.974;2023-03-12T01:18:29;46.72;;;8.32;;
51438;SDS011;38816;51.142;-0.974;2023-03-12T01:20:55;43.08;;;7.38;;
51438;SDS011;38816;51.142;-0.974;2023-03-12T01:23:20;46.08;;;7.90;;
51438;SDS011;38816;51.142;-0.974;2023-03-12T01:25:46;46.60;;;7.85;;
51438;SDS011;38816;51.142;-0.974;2023-03-12T01:28:11;40.10;;;6.93;;
51438;SDS011;38816;51.142;-0.974;2023-03-12T01:30:37;48.28;;;7.88;;
51438;SDS011;38816;51.142;-0.974;2023-03-12T01:33:03;39.72;;;7.57;;
51438;SDS011;38816;51.142;-0.974;2023-03-12T01:35:28;42.33;;;7.57;;
51438;SDS011;38816;51.142;-0.974;2023-03-12T01:37:54;39.85;;;7.63;;
51438;SDS011;38816;51.142;-0.974;2023-03-12T01:40:20;51.67;;;7.57;;
51438;SDS011;38816;51.142;-0.974;2023-03-12T01:42:53;53.80;;;8.07;;
51438;SDS011;38816;51.142;-0.974;2023-03-12T01:48:35;43.25;;;6.82;;
51438;SDS011;38816;51.142;-0.974;2023-03-12T01:51:04;41.53;;;6.45;;
51438;SDS011;38816;51.142;-0.974;2023-03-12T01:53:32;49.83;;;6.78;;
51438;SDS011;38816;51.142;-0.974;2023-03-12T01:55:58;38.35;;;5.93;;
51438;SDS011;38816;51.142;-0.974;2023-03-12T01:58:25;52.30;;;6.03;;
51438;SDS011;38816;51.142;-0.974;2023-03-12T02:00:51;49.22;;;6.32;;
51438;SDS011;38816;51.142;-0.974;2023-03-12T02:03:17;59.58;;;7.15;;
51438;SDS011;38816;51.142;-0.974;2023-03-12T02:05:44;57.35;;;7.10;;
51438;SDS011;38816;51.142;-0.974;2023-03-12T02:08:14;37.75;;;5.95;;
51438;SDS011;38816;51.142;-0.974;2023-03-12T02:10:41;47.55;;;6.22;;
51438;SDS011;38816;51.142;-0.974;2023-03-12T02:13:07;36.55;;;5.35;;
51438;SDS011;38816;51.142;-0.974;2023-03-12T02:15:33;66.28;;;7.10;;
51438;SDS011;38816;51.142;-0.974;2023-03-12T02:18:01;55.15;;;7.80;;
51438;SDS011;38816;51.142;-0.974;2023-03-12T02:20:35;59.22;;;6.97;;
51438;SDS011;38816;51.142;-0.974;2023-03-12T02:23:12;56.55;;;6.72;;
51438;SDS011;38816;51.142;-0.974;2023-03-12T02:25:40;59.75;;;7.90;;
51438;SDS011;38816;51.142;-0.974;2023-03-12T02:28:13;44.30;;;6.35;;
51438;SDS011;38816;51.142;-0.974;2023-03-12T02:30:41;57.42;;;6.93;;
51438;SDS011;38816;51.142;-0.974;2023-03-12T02:33:08;56.55;;;6.90;;
51438;SDS011;38816;51.142;-0.974;2023-03-12T02:35:35;58.95;;;7.18;;
51438;SDS011;38816;51.142;-0.974;2023-03-12T02:38:00;62.78;;;7.45;;
51438;SDS011;38816;51.142;-0.974;2023-03-12T02:40:28;55.45;;;5.85;;
51438;SDS011;38816;51.142;-0.974;2023-03-12T02:42:58;67.95;;;6.40;;
51438;SDS011;38816;51.142;-0.974;2023-03-12T02:45:26;52.40;;;6.70;;
51438;SDS011;38816;51.142;-0.974;2023-03-12T02:47:53;35.70;;;5.50;;
51438;SDS011;38816;51.142;-0.974;2023-03-12T02:50:19;56.85;;;6.13;;
51438;SDS011;38816;51.142;-0.974;2023-03-12T02:52:44;58.63;;;6.25;;
51438;SDS011;38816;51.142;-0.974;2023-03-12T02:55:10;67.47;;;7.13;;
51438;SDS011;38816;51.142;-0.974;2023-03-12T02:57:35;86.45;;;7.05;;
51438;SDS011;38816;51.142;-0.974;2023-03-12T03:00:06;64.45;;;8.48;;
51438;SDS011;38816;51.142;-0.974;2023-03-12T03:02:36;59.05;;;6.07;;
51438;SDS011;38816;51.142;-0.974;2023-03-12T03:05:05;73.18;;;6.35;;
51438;SDS011;38816;51.142;-0.974;2023-03-12T03:07:32;68.57;;;7.90;;
51438;SDS011;38816;51.142;-0.974;2023-03-12T03:09:57;69.85;;;5.95;;
51438;SDS011;38816;51.142;-0.974;2023-03-12T03:12:34;63.33;;;6.97;;
51438;SDS011;38816;51.142;-0.974;2023-03-12T03:15:00;78.38;;;7.07;;
51438;SDS011;38816;51.142;-0.974;2023-03-12T03:17:26;91.43;;;6.93;;
51438;SDS011;38816;51.142;-0.974;2023-03-12T03:19:52;76.30;;;6.22;;
51438;SDS011;38816;51.142;-0.974;2023-03-12T03:22:18;82.88;;;7.65;;
51438;SDS011;38816;51.142;-0.974;2023-03-12T03:24:44;77.47;;;6.45;;
51438;SDS011;38816;51.142;-0.974;2023-03-12T03:27:10;89.32;;;7.40;;
51438;SDS011;38816;51.142;-0.974;2023-03-12T03:29:35;71.88;;;6.97;;
51438;SDS011;38816;51.142;-0.974;2023-03-12T03:32:01;72.40;;;6.85;;
51438;SDS011;38816;51.142;-0.974;2023-03-12T03:34:26;75.15;;;9.25;;
51438;SDS011;38816;51.142;-0.974;2023-03-12T03:36:51;70.28;;;6.40;;
51438;SDS011;38816;51.142;-0.974;2023-03-12T03:39:17;79.90;;;8.00;;
51438;SDS011;38816;51.142;-0.974;2023-03-12T03:41:42;80.20;;;7.85;;
51438;SDS011;38816;51.142;-0.974;2023-03-12T03:44:09;79.78;;;8.27;;
51438;SDS011;38816;51.142;-0.974;2023-03-12T03:46:35;81.90;;;8.00;;
51438;SDS011;38816;51.142;-0.974;2023-03-12T03:49:00;99.88;;;9.02;;
51438;SDS011;38816;51.142;-0.974;2023-03-12T03:51:26;81.13;;;7.97;;
51438;SDS011;38816;51.142;-0.974;2023-03-12T03:53:52;76.93;;;8.93;;
51438;SDS011;38816;51.142;-0.974;2023-03-12T03:56:17;73.13;;;6.78;;
51438;SDS011;38816;51.142;-0.974;2023-03-12T03:58:43;87.40;;;8.50;;
51438;SDS011;38816;51.142;-0.974;2023-03-12T04:01:09;76.55;;;8.80;;
51438;SDS011;38816;51.142;-0.974;2023-03-12T04:03:34;80.50;;;7.93;;
51438;SDS011;38816;51.142;-0.974;2023-03-12T04:06:00;66.50;;;8.20;;
51438;SDS011;38816;51.142;-0.974;2023-03-12T04:08:28;72.88;;;7.63;;
51438;SDS011;38816;51.142;-0.974;2023-03-12T04:10:53;91.15;;;7.65;;
51438;SDS011;38816;51.142;-0.974;2023-03-12T04:13:19;77.75;;;7.80;;
51438;SDS011;38816;51.142;-0.974;2023-03-12T04:15:49;85.75;;;8.52;;
51438;SDS011;38816;51.142;-0.974;2023-03-12T04:18:16;78.45;;;7.78;;
51438;SDS011;38816;51.142;-0.974;2023-03-12T04:20:45;86.68;;;8.50;;
51438;SDS011;38816;51.142;-0.974;2023-03-12T04:23:11;75.88;;;8.10;;
51438;SDS011;38816;51.142;-0.974;2023-03-12T04:25:36;92.47;;;8.85;;
51438;SDS011;38816;51.142;-0.974;2023-03-12T04:28:02;89.05;;;8.50;;
51438;SDS011;38816;51.142;-0.974;2023-03-12T04:30:28;71.68;;;6.88;;
51438;SDS011;38816;51.142;-0.974;2023-03-12T04:32:53;83.15;;;8.02;;
51438;SDS011;38816;51.142;-0.974;2023-03-12T04:35:19;79.43;;;8.43;;
51438;SDS011;38816;51.142;-0.974;2023-03-12T04:37:45;81.70;;;7.93;;
51438;SDS011;38816;51.142;-0.974;2023-03-12T04:40:11;76.70;;;7.28;;
51438;SDS011;38816;51.142;-0.974;2023-03-12T04:42:37;93.93;;;8.30;;
51438;SDS011;38816;51.142;-0.974;2023-03-12T04:45:03;102.97;;;8.95;;
51438;SDS011;38816;51.142;-0.974;2023-03-12T04:47:30;78.60;;;6.57;;
51438;SDS011;38816;51.142;-0.974;2023-03-12T04:49:56;85.55;;;7.05;;
51438;SDS011;38816;51.142;-0.974;2023-03-12T04:52:22;81.45;;;7.57;;
51438;SDS011;38816;51.142;-0.974;2023-03-12T04:54:47;72.78;;;6.80;;
51438;SDS011;38816;51.142;-0.974;2023-03-12T04:57:12;77.13;;;6.75;;
51438;SDS011;38816;51.142;-0.974;2023-03-12T04:59:38;71.50;;;6.63;;
51438;SDS011;38816;51.142;-0.974;2023-03-12T05:02:03;52.97;;;5.88;;
51438;SDS011;38816;51.142;-0.974;2023-03-12T05:04:29;51.10;;;5.72;;
51438;SDS011;38816;51.142;-0.974;2023-03-12T05:06:54;68.22;;;6.00;;
51438;SDS011;38816;51.142;-0.974;2023-03-12T05:09:19;66.28;;;6.28;;
51438;SDS011;38816;51.142;-0.974;2023-03-12T05:11:45;65.93;;;6.90;;
51438;SDS011;38816;51.142;-0.974;2023-03-12T05:14:11;71.80;;;7.40;;
51438;SDS011;38816;51.142;-0.974;2023-03-12T05:16:36;73.38;;;10.05;;
51438;SDS011;38816;51.142;-0.974;2023-03-12T05:19:02;70.05;;;6.70;;
51438;SDS011;38816;51.142;-0.974;2023-03-12T05:21:28;76.03;;;6.82;;
51438;SDS011;38816;51.142;-0.974;2023-03-12T05:23:53;80.15;;;7.20;;
51438;SDS011;38816;51.142;-0.974;2023-03-12T05:26:20;73.28;;;7.38;;
51438;SDS011;38816;51.142;-0.974;2023-03-12T05:28:48;68.80;;;6.95;;
51438;SDS011;38816;51.142;-0.974;2023-03-12T05:31:13;79.20;;;6.97;;
51438;SDS011;38816;51.142;-0.974;2023-03-12T05:33:40;100.35;;;9.80;;
51438;SDS011;38816;51.142;-0.974;2023-03-12T05:36:06;60.15;;;6.30;;
51438;SDS011;38816;51.142;-0.974;2023-03-12T05:38:31;68.43;;;7.13;;
51438;SDS011;38816;51.142;-0.974;2023-03-12T05:40:57;66.18;;;7.30;;
51438;SDS011;38816;51.142;-0.974;2023-03-12T05:43:23;81.18;;;7.72;;
51438;SDS011;38816;51.142;-0.974;2023-03-12T05:45:49;87.53;;;7.85;;
51438;SDS011;38816;51.142;-0.974;2023-03-12T05:48:17;82.90;;;6.82;;
51438;SDS011;38816;51.142;-0.974;2023-03-12T05:50:42;80.70;;;7.32;;
51438;SDS011;38816;51.142;-0.974;2023-03-12T05:53:08;72.30;;;7.60;;
51438;SDS011;38816;51.142;-0.974;2023-03-12T05:55:34;64.72;;;7.65;;
51438;SDS011;38816;51.142;-0.974;2023-03-12T05:58:03;89.95;;;11.15;;
51438;SDS011;38816;51.142;-0.974;2023-03-12T06:00:30;74.13;;;13.18;;
51438;SDS011;38816;51.142;-0.974;2023-03-12T06:02:56;82.10;;;14.00;;
51438;SDS011;38816;51.142;-0.974;2023-03-12T06:05:22;80.97;;;10.43;;
51438;SDS011;38816;51.142;-0.974;2023-03-12T06:07:48;67.78;;;7.95;;
51438;SDS011;38816;51.142;-0.974;2023-03-12T06:10:13;76.32;;;7.80;;
51438;SDS011;38816;51.142;-0.974;2023-03-12T06:12:39;71.35;;;7.20;;
51438;SDS011;38816;51.142;-0.974;2023-03-12T06:15:04;76.60;;;7.15;;
51438;SDS011;38816;51.142;-0.974;2023-03-12T06:17:30;76.07;;;6.82;;
51438;SDS011;38816;51.142;-0.974;2023-03-12T06:19:56;71.78;;;6.93;;
51438;SDS011;38816;51.142;-0.974;2023-03-12T06:22:22;69.70;;;6.85;;
51438;SDS011;38816;51.142;-0.974;2023-03-12T06:24:47;90.70;;;6.88;;
51438;SDS011;38816;51.142;-0.974;2023-03-12T06:27:13;79.55;;;7.35;;
51438;SDS011;38816;51.142;-0.974;2023-03-12T06:29:39;75.05;;;6.90;;
51438;SDS011;38816;51.142;-0.974;2023-03-12T06:32:05;89.72;;;7.38;;
51438;SDS011;38816;51.142;-0.974;2023-03-12T06:34:31;77.90;;;7.85;;
51438;SDS011;38816;51.142;-0.974;2023-03-12T06:36:56;76.57;;;6.25;;
51438;SDS011;38816;51.142;-0.974;2023-03-12T06:39:21;74.18;;;6.85;;
51438;SDS011;38816;51.142;-0.974;2023-03-12T06:41:47;60.10;;;6.60;;
51438;SDS011;38816;51.142;-0.974;2023-03-12T06:44:12;84.28;;;7.90;;
51438;SDS011;38816;51.142;-0.974;2023-03-12T06:46:38;65.25;;;6.90;;
51438;SDS011;38816;51.142;-0.974;2023-03-12T06:49:03;76.90;;;7.18;;
51438;SDS011;38816;51.142;-0.974;2023-03-12T06:51:29;101.50;;;7.40;;
51438;SDS011;38816;51.142;-0.974;2023-03-12T06:53:54;89.47;;;7.43;;
51438;SDS011;38816;51.142;-0.974;2023-03-12T06:56:20;71.65;;;6.47;;
51438;SDS011;38816;51.142;-0.974;2023-03-12T06:58:45;87.47;;;9.02;;
51438;SDS011;38816;51.142;-0.974;2023-03-12T07:01:10;77.82;;;6.80;;
51438;SDS011;38816;51.142;-0.974;2023-03-12T07:03:36;89.57;;;7.13;;
51438;SDS011;38816;51.142;-0.974;2023-03-12T07:06:02;68.30;;;6.68;;
51438;SDS011;38816;51.142;-0.974;2023-03-12T07:08:27;79.15;;;7.25;;
51438;SDS011;38816;51.142;-0.974;2023-03-12T07:10:58;72.65;;;6.70;;
51438;SDS011;38816;51.142;-0.974;2023-03-12T07:13:24;74.55;;;8.38;;
51438;SDS011;38816;51.142;-0.974;2023-03-12T07:15:49;100.80;;;8.88;;
51438;SDS011;38816;51.142;-0.974;2023-03-12T07:18:15;88.75;;;7.22;;
51438;SDS011;38816;51.142;-0.974;2023-03-12T07:20:41;75.30;;;6.43;;
51438;SDS011;38816;51.142;-0.974;2023-03-12T07:23:08;93.40;;;6.40;;
51438;SDS011;38816;51.142;-0.974;2023-03-12T07:25:34;79.07;;;7.95;;
51438;SDS011;38816;51.142;-0.974;2023-03-12T07:28:04;92.80;;;8.20;;
51438;SDS011;38816;51.142;-0.974;2023-03-12T07:30:31;81.97;;;7.50;;
51438;SDS011;38816;51.142;-0.974;2023-03-12T07:33:01;76.70;;;7.68;;
51438;SDS011;38816;51.142;-0.974;2023-03-12T07:35:27;71.70;;;7.10;;
51438;SDS011;38816;51.142;-0.974;2023-03-12T07:37:53;68.05;;;6.65;;
51438;SDS011;38816;51.142;-0.974;2023-03-12T07:40:18;73.47;;;7.68;;
51438;SDS011;38816;51.142;-0.974;2023-03-12T07:42:44;80.05;;;7.38;;
51438;SDS011;38816;51.142;-0.974;2023-03-12T07:45:09;85.30;;;7.22;;
51438;SDS011;38816;51.142;-0.974;2023-03-12T07:47:35;79.50;;;7.35;;
51438;SDS011;38816;51.142;-0.974;2023-03-12T07:50:00;75.70;;;6.80;;
51438;SDS011;38816;51.142;-0.974;2023-03-12T07:52:26;70.70;;;6.50;;
51438;SDS011;38816;51.142;-0.974;2023-03-12T07:54:52;87.72;;;7.93;;
51438;SDS011;38816;51.142;-0.974;2023-03-12T07:57:18;62.08;;;6.18;;
51438;SDS011;38816;51.142;-0.974;2023-03-12T07:59:44;78.18;;;6.90;;
51438;SDS011;38816;51.142;-0.974;2023-03-12T08:02:11;80.70;;;7.93;;
51438;SDS011;38816;51.142;-0.974;2023-03-12T08:04:36;97.93;;;7.88;;
51438;SDS011;38816;51.142;-0.974;2023-03-12T08:07:04;82.50;;;6.53;;
51438;SDS011;38816;51.142;-0.974;2023-03-12T08:09:30;86.38;;;7.55;;
51438;SDS011;38816;51.142;-0.974;2023-03-12T08:11:57;70.10;;;6.85;;
51438;SDS011;38816;51.142;-0.974;2023-03-12T08:14:22;77.03;;;7.95;;
51438;SDS011;38816;51.142;-0.974;2023-03-12T08:16:48;75.93;;;6.45;;
51438;SDS011;38816;51.142;-0.974;2023-03-12T08:19:13;71.90;;;6.43;;
51438;SDS011;38816;51.142;-0.974;2023-03-12T08:21:39;79.63;;;7.72;;
51438;SDS011;38816;51.142;-0.974;2023-03-12T08:24:04;90.55;;;8.95;;
51438;SDS011;38816;51.142;-0.974;2023-03-12T08:26:30;75.55;;;6.53;;
51438;SDS011;38816;51.142;-0.974;2023-03-12T08:28:55;67.15;;;6.75;;
51438;SDS011;38816;51.142;-0.974;2023-03-12T08:31:21;73.78;;;7.22;;
51438;SDS011;38816;51.142;-0.974;2023-03-12T08:33:46;56.20;;;6.43;;
51438;SDS011;38816;51.142;-0.974;2023-03-12T08:36:12;68.60;;;7.35;;
51438;SDS011;38816;51.142;-0.974;2023-03-12T08:38:37;65.95;;;7.25;;
51438;SDS011;38816;51.142;-0.974;2023-03-12T08:41:02;77.78;;;6.80;;
51438;SDS011;38816;51.142;-0.974;2023-03-12T08:43:28;48.75;;;5.72;;
51438;SDS011;38816;51.142;-0.974;2023-03-12T08:45:55;63.40;;;6.25;;
51438;SDS011;38816;51.142;-0.974;2023-03-12T08:48:21;64.95;;;6.93;;
51438;SDS011;38816;51.142;-0.974;2023-03-12T08:50:47;48.67;;;6.80;;
51438;SDS011;38816;51.142;-0.974;2023-03-12T08:53:12;68.97;;;7.38;;
51438;SDS011;38816;51.142;-0.974;2023-03-12T08:55:37;52.15;;;6.60;;
51438;SDS011;38816;51.142;-0.974;2023-03-12T08:58:03;53.25;;;6.47;;
51438;SDS011;38816;51.142;-0.974;2023-03-12T09:00:28;57.78;;;6.50;;
51438;SDS011;38816;51.142;-0.974;2023-03-12T09:02:53;48.25;;;7.05;;
51438;SDS011;38816;51.142;-0.974;2023-03-12T09:05:22;58.17;;;6.22;;
51438;SDS011;38816;51.142;-0.974;2023-03-12T09:07:52;62.35;;;7.10;;
51438;SDS011;38816;51.142;-0.974;2023-03-12T09:10:17;49.50;;;5.72;;
51438;SDS011;38816;51.142;-0.974;2023-03-12T09:12:43;53.45;;;7.30;;
51438;SDS011;38816;51.142;-0.974;2023-03-12T09:15:09;51.10;;;6.53;;
51438;SDS011;38816;51.142;-0.974;2023-03-12T09:17:34;49.05;;;6.88;;
51438;SDS011;38816;51.142;-0.974;2023-03-12T09:20:00;49.00;;;6.05;;
51438;SDS011;38816;51.142;-0.974;2023-03-12T09:22:25;46.85;;;6.88;;
51438;SDS011;38816;51.142;-0.974;2023-03-12T09:24:53;53.00;;;6.47;;
51438;SDS011;38816;51.142;-0.974;2023-03-12T09:27:18;62.67;;;7.18;;
51438;SDS011;38816;51.142;-0.974;2023-03-12T09:29:44;42.28;;;6.22;;
51438;SDS011;38816;51.142;-0.974;2023-03-12T09:32:09;46.15;;;6.18;;
51438;SDS011;38816;51.142;-0.974;2023-03-12T09:34:35;41.47;;;5.55;;
51438;SDS011;38816;51.142;-0.974;2023-03-12T09:37:00;54.20;;;5.85;;
51438;SDS011;38816;51.142;-0.974;2023-03-12T09:39:25;46.15;;;6.97;;
51438;SDS011;38816;51.142;-0.974;2023-03-12T09:41:51;48.33;;;5.60;;
51438;SDS011;38816;51.142;-0.974;2023-03-12T09:47:41;46.80;;;7.30;;
51438;SDS011;38816;51.142;-0.974;2023-03-12T09:52:47;48.33;;;6.32;;
51438;SDS011;38816;51.142;-0.974;2023-03-12T09:55:20;43.22;;;6.35;;
51438;SDS011;38816;51.142;-0.974;2023-03-12T09:57:47;49.40;;;7.40;;
51438;SDS011;38816;51.142;-0.974;2023-03-12T10:00:36;41.00;;;6.68;;
51438;SDS011;38816;51.142;-0.974;2023-03-12T10:03:21;42.17;;;5.57;;
51438;SDS011;38816;51.142;-0.974;2023-03-12T10:06:13;36.60;;;6.35;;
51438;SDS011;38816;51.142;-0.974;2023-03-12T10:14:13;42.70;;;6.18;;
51438;SDS011;38816;51.142;-0.974;2023-03-12T10:19:30;43.70;;;6.47;;
51438;SDS011;38816;51.142;-0.974;2023-03-12T10:27:14;34.42;;;5.53;;
51438;SDS011;38816;51.142;-0.974;2023-03-12T10:29:41;45.78;;;5.78;;
51438;SDS011;38816;51.142;-0.974;2023-03-12T10:32:19;41.53;;;5.25;;
51438;SDS011;38816;51.142;-0.974;2023-03-12T10:34:49;37.33;;;5.18;;
51438;SDS011;38816;51.142;-0.974;2023-03-12T10:39:56;42.13;;;6.65;;
51438;SDS011;38816;51.142;-0.974;2023-03-12T10:42:24;40.92;;;6.03;;
51438;SDS011;38816;51.142;-0.974;2023-03-12T10:44:52;36.50;;;5.43;;
51438;SDS011;38816;51.142;-0.974;2023-03-12T10:50:10;31.52;;;5.43;;
51438;SDS011;38816;51.142;-0.974;2023-03-12T10:52:36;45.95;;;6.40;;
51438;SDS011;38816;51.142;-0.974;2023-03-12T10:55:02;35.65;;;5.78;;
51438;SDS011;38816;51.142;-0.974;2023-03-12T10:57:44;35.05;;;5.50;;
51438;SDS011;38816;51.142;-0.974;2023-03-12T11:00:21;35.75;;;5.85;;
51438;SDS011;38816;51.142;-0.974;2023-03-12T11:02:54;43.60;;;5.72;;
51438;SDS011;38816;51.142;-0.974;2023-03-12T11:05:44;36.30;;;6.10;;
51438;SDS011;38816;51.142;-0.974;2023-03-12T11:10:47;34.20;;;4.90;;
51438;SDS011;38816;51.142;-0.974;2023-03-12T11:13:20;34.83;;;4.95;;
51438;SDS011;38816;51.142;-0.974;2023-03-12T11:15:49;23.88;;;4.15;;
51438;SDS011;38816;51.142;-0.974;2023-03-12T11:21:11;28.17;;;4.13;;
51438;SDS011;38816;51.142;-0.974;2023-03-12T11:24:21;26.00;;;4.60;;
51438;SDS011;38816;51.142;-0.974;2023-03-12T11:26:32;21.15;;;3.92;;
51438;SDS011;38816;51.142;-0.974;2023-03-12T11:32:23;28.33;;;4.25;;
51438;SDS011;38816;51.142;-0.974;2023-03-12T11:34:53;24.65;;;3.75;;
51438;SDS011;38816;51.142;-0.974;2023-03-12T11:37:23;24.23;;;4.82;;
51438;SDS011;38816;51.142;-0.974;2023-03-12T11:42:51;27.48;;;4.20;;
51438;SDS011;38816;51.142;-0.974;2023-03-12T11:48:05;31.13;;;4.45;;
51438;SDS011;38816;51.142;-0.974;2023-03-12T11:56:26;27.90;;;4.00;;
51438;SDS011;38816;51.142;-0.974;2023-03-12T12:01:48;34.60;;;5.80;;
51438;SDS011;38816;51.142;-0.974;2023-03-12T12:12:54;36.80;;;5.45;;
51438;SDS011;38816;51.142;-0.974;2023-03-12T12:18:55;32.80;;;4.97;;
51438;SDS011;38816;51.142;-0.974;2023-03-12T12:27:19;35.83;;;6.00;;
51438;SDS011;38816;51.142;-0.974;2023-03-12T12:30:09;27.45;;;4.93;;
51438;SDS011;38816;51.142;-0.974;2023-03-12T12:35:49;33.90;;;5.20;;
51438;SDS011;38816;51.142;-0.974;2023-03-12T12:38:23;33.22;;;4.53;;
51438;SDS011;38816;51.142;-0.974;2023-03-12T12:41:03;23.52;;;4.03;;
51438;SDS011;38816;51.142;-0.974;2023-03-12T12:43:41;25.90;;;4.38;;
51438;SDS011;38816;51.142;-0.974;2023-03-12T12:46:33;18.48;;;3.20;;
51438;SDS011;38816;51.142;-0.974;2023-03-12T12:49:08;15.10;;;3.22;;
51438;SDS011;38816;51.142;-0.974;2023-03-12T12:51:58;22.13;;;2.80;;
51438;SDS011;38816;51.142;-0.974;2023-03-12T12:54:35;17.55;;;2.80;;
51438;SDS011;38816;51.142;-0.974;2023-03-12T12:57:16;15.23;;;2.90;;
51438;SDS011;38816;51.142;-0.974;2023-03-12T12:59:54;11.10;;;2.05;;
51438;SDS011;38816;51.142;-0.974;2023-03-12T13:02:35;11.77;;;1.92;;
51438;SDS011;38816;51.142;-0.974;2023-03-12T13:05:12;13.85;;;2.60;;
51438;SDS011;38816;51.142;-0.974;2023-03-12T13:07:52;12.75;;;2.10;;
51438;SDS011;38816;51.142;-0.974;2023-03-12T13:13:08;19.85;;;2.85;;
51438;SDS011;38816;51.142;-0.974;2023-03-12T13:15:37;18.23;;;3.95;;
51438;SDS011;38816;51.142;-0.974;2023-03-12T13:18:08;19.50;;;3.10;;
51438;SDS011;38816;51.142;-0.974;2023-03-12T13:26:26;17.58;;;2.92;;
51438;SDS011;38816;51.142;-0.974;2023-03-12T13:29:16;18.92;;;3.00;;
51438;SDS011;38816;51.142;-0.974;2023-03-12T13:32:01;15.93;;;2.65;;
51438;SDS011;38816;51.142;-0.974;2023-03-12T13:34:28;19.80;;;3.17;;
51438;SDS011;38816;51.142;-0.974;2023-03-12T13:36:57;14.90;;;2.95;;
51438;SDS011;38816;51.142;-0.974;2023-03-12T13:39:27;18.15;;;3.50;;
51438;SDS011;38816;51.142;-0.974;2023-03-12T13:41:58;20.02;;;3.90;;
51438;SDS011;38816;51.142;-0.974;2023-03-12T13:44:29;20.60;;;3.25;;
51438;SDS011;38816;51.142;-0.974;2023-03-12T13:55:43;26.63;;;4.28;;
51438;SDS011;38816;51.142;-0.974;2023-03-12T13:58:17;30.98;;;4.20;;
51438;SDS011;38816;51.142;-0.974;2023-03-12T14:03:31;26.07;;;4.13;;
51438;SDS011;38816;51.142;-0.974;2023-03-12T14:19:13;27.65;;;4.00;;
51438;SDS011;38816;51.142;-0.974;2023-03-12T14:21:42;23.88;;;4.05;;
51438;SDS011;38816;51.142;-0.974;2023-03-12T14:26:56;17.95;;;3.20;;
51438;SDS011;38816;51.142;-0.974;2023-03-12T14:29:25;20.35;;;2.95;;
51438;SDS011;38816;51.142;-0.974;2023-03-12T14:31:55;15.15;;;2.55;;
51438;SDS011;38816;51.142;-0.974;2023-03-12T14:34:28;19.75;;;3.20;;
51438;SDS011;38816;51.142;-0.974;2023-03-12T14:37:12;19.27;;;3.42;;
51438;SDS011;38816;51.142;-0.974;2023-03-12T14:42:27;14.52;;;2.53;;
51438;SDS011;38816;51.142;-0.974;2023-03-12T14:44:59;13.63;;;2.13;;
51438;SDS011;38816;51.142;-0.974;2023-03-12T14:47:27;14.25;;;2.50;;
51438;SDS011;38816;51.142;-0.974;2023-03-12T14:49:54;17.02;;;2.55;;
51438;SDS011;38816;51.142;-0.974;2023-03-12T14:52:27;13.30;;;2.70;;
51438;SDS011;38816;51.142;-0.974;2023-03-12T14:55:01;13.15;;;2.97;;
51438;SDS011;38816;51.142;-0.974;2023-03-12T14:57:31;12.20;;;2.28;;
51438;SDS011;38816;51.142;-0.974;2023-03-12T14:59:57;15.80;;;2.78;;
51438;SDS011;38816;51.142;-0.974;2023-03-12T15:02:24;10.90;;;2.20;;
51438;SDS011;38816;51.142;-0.974;2023-03-12T15:04:52;16.90;;;2.60;;
51438;SDS011;38816;51.142;-0.974;2023-03-12T15:07:24;14.43;;;2.22;;
51438;SDS011;38816;51.142;-0.974;2023-03-12T15:09:55;13.77;;;2.10;;
51438;SDS011;38816;51.142;-0.974;2023-03-12T15:12:22;14.45;;;2.90;;
51438;SDS011;38816;51.142;-0.974;2023-03-12T15:14:59;19.88;;;2.85;;
51438;SDS011;38816;51.142;-0.974;2023-03-12T15:17:28;19.30;;;2.75;;
51438;SDS011;38816;51.142;-0.974;2023-03-12T15:19:55;14.45;;;2.80;;
51438;SDS011;38816;51.142;-0.974;2023-03-12T15:22:21;13.40;;;2.67;;
51438;SDS011;38816;51.142;-0.974;2023-03-12T15:24:49;16.55;;;2.80;;
51438;SDS011;38816;51.142;-0.974;2023-03-12T15:29:52;19.63;;;3.38;;
51438;SDS011;38816;51.142;-0.974;2023-03-12T15:32:19;19.27;;;3.42;;
51438;SDS011;38816;51.142;-0.974;2023-03-12T15:34:46;18.85;;;3.35;;
51438;SDS011;38816;51.142;-0.974;2023-03-12T15:37:23;24.30;;;3.78;;
51438;SDS011;38816;51.142;-0.974;2023-03-12T15:40:27;19.05;;;3.42;;
51438;SDS011;38816;51.142;-0.974;2023-03-12T15:42:54;21.70;;;3.55;;
51438;SDS011;38816;51.142;-0.974;2023-03-12T15:45:38;22.98;;;3.65;;
51438;SDS011;38816;51.142;-0.974;2023-03-12T15:50:54;17.38;;;3.13;;
51438;SDS011;38816;51.142;-0.974;2023-03-12T15:56:17;27.10;;;3.72;;
51438;SDS011;38816;51.142;-0.974;2023-03-12T15:58:46;29.20;;;3.80;;
51438;SDS011;38816;51.142;-0.974;2023-03-12T16:01:22;29.27;;;4.07;;
51438;SDS011;38816;51.142;-0.974;2023-03-12T16:03:51;29.88;;;4.53;;
51438;SDS011;38816;51.142;-0.974;2023-03-12T16:06:18;23.65;;;4.35;;
51438;SDS011;38816;51.142;-0.974;2023-03-12T16:08:59;34.70;;;4.35;;
51438;SDS011;38816;51.142;-0.974;2023-03-12T16:11:28;28.08;;;3.53;;
51438;SDS011;38816;51.142;-0.974;2023-03-12T16:14:04;18.23;;;3.13;;
51438;SDS011;38816;51.142;-0.974;2023-03-12T16:16:32;23.75;;;3.35;;
51438;SDS011;38816;51.142;-0.974;2023-03-12T16:18:58;22.92;;;3.30;;
51438;SDS011;38816;51.142;-0.974;2023-03-12T16:21:24;12.38;;;2.65;;
51438;SDS011;38816;51.142;-0.974;2023-03-12T16:23:49;11.57;;;2.47;;
51438;SDS011;38816;51.142;-0.974;2023-03-12T16:26:15;15.52;;;2.90;;